עמוד ראשי
METAR-TAF:

METAR-TAF

שדות תעופה :

Pohnpei, מיקרונזיה

קו רוחב: 06-59N, קו אורך: 158-12E, גובה: 2מטר

תצפית מזג אוויר נוכחית

הדו"ח נערך לפני 7 שעות ו 36דקות, בשעה 04:50 UTC
רוח 5קשר מכיוון מזרח/צפון-מזרח
טמפרטורת 31 צלסיוס
לחות 71%
לחץ 1007 hPa
ראות: 24.1קילומטר
עננים פזורים בגובה 1800רגל
עננים בינוניים בגובה 13000רגל
מעונן בגובה 30000רגל

METAR: PTPN 170450Z 07005KT 15SM SCT018 BKN130 OVC300 31/25 A2973 RMK LAST

זמן: 23:26 (12:26 UTC)

תחזית

הדו"ח נערך לפני 11 שעות ו 32דקות, בשעה 00:54 UTC
תחזית בתוקף מ 17 ב 01 UTC עד 17 ב 24 UTC
רוח 8קשר מכיוון מזרח/צפון-מזרח
ראות: 10קילומטר
עננים פזורים בגובה 1800רגל
עננים בינוניים בגובה 12000רגל
ממטרים במרחב
זמנית מ -
17 ב 01 UTC עד 17 ב 05 UTC
רוח 10קשר עם כיוונים משתנים עם משבים עד 16קשר
ראות: 9.7קילומטר
עננים בינוניים בגובה 1700רגל
ממטרי גשם,

TAF: PTPN 170054Z 1701/1724 07008KT P6SM VCSH SCT018 BKN120 TEMPO 1701/1705 VRB10G16KT 6SM SHRA BKN017

תצפיות ותחזיות מזג אוויר לגבי יותר מ- 4,000 שדות תעופה ברחבי העולם. דוחות METAR ו- TAF.

התחנות הזמינות מסומנות בנקודות צהובות ואדומות על גבי המפה.

העבר את העכבר לנקודה הצבעונית על מנת לראות את שם התחנה.

לאחר מכן, לחץ כדי לראות את תוכן ואת תחזיות מזג האוויר.

כדי לשנות את המפה: לחץ על הכפתורים הירוקים עם הפלוס השחור כדי להתקרב; על הכפתור הירוק עם המקף כדי להתרחק; או בחיצים הירוקים למפות סמוכות.


METAR-TAF: